Monroe County Airport
KBMG : now visible

Airfield :











YOU CAN JOIN US ON...

 
LOGIN :

Register | Disclaimer

   EN    FR    IT 

 









Legend :    VFR   Marginal VFR   IFR   Intensive IFR   Very Intensive IFR
Visi :
Ceiling :
>= 8 km
>= 3000ft
5 to 8 km
1000 to 3000 ft
1500m to 5 km
500 to 1000 ft
800 to 1500m
200 to 500 ft
< 800m
< 200 ft
Symbols :   Thunderstorms  Fog  Heavy snow  Heavy precipitations  Wind > 20 kt







- Airport Elevation : 846 ft
- IATA code : BMG


KBMG - Monroe County

CURRENT METAR :
  • 191653Z 36016G24KT 2 1/2SM -RA BR OVC008 06/06 A2965 RMK AO2 SLP042 P0002 T00610056

EXPIRED METARs :
  • 191633Z 36014G22KT 2 1/2SM -RA BR BKN007 BKN012 OVC022 06/06 A2966 RMK AO2 P0001 T00610056
  • 191601Z 36017KT 2 1/2SM -RA BR SCT008 OVC012 06/05 A2966 RMK AO2 P0000 T00610050
  • 191553Z 01016KT 2 1/2SM -RA BR BKN008 OVC015 06/05 A2965 RMK AO2 RAB20 CIG 006V012 SLP043 P0001 T00610050
  • 191543Z 36017G24KT 2 1/2SM -RA BR BKN008 OVC015 06/05 A2966 RMK AO2 RAB20 CIG 006V013 P0000 T00560050
  • 191525Z 35015KT 6SM -RA BR OVC008 06/05 A2965 RMK AO2 RAB20 P0000 T00560050
  • 191453Z 01016G27KT 10SM BKN010 OVC014 06/04 A2965 RMK AO2 PK WND 36027/1448 CIG 008V013 SLP040 60000 T00610044 51007
  • 191420Z 36016G22KT 10SM OVC010 06/05 A2963 RMK AO2 T00610050
  • 191403Z 35016G24KT 10SM OVC009 06/04 A2964 RMK AO2 T00560044

TAF KBMG
Valid from the 19 at 13:00 until the 20 at 12:00 UTC


191239Z 1913/2012 35012G22KT P6SM VCSH OVC008
TEMPO 1913/1915 4SM -SHRA
FM191700 36014G23KT 6SM -SHRA BR OVC010
FM201000 36014KT 6SM SHRASN BR OVC010
FM201100 35014KT 6SM SHRASN BR OVC009 AMD LTD TO CLD VIS AND WIND TIL 191300
KZID FIR / North America



MET'MAP, your aeronautical weather chart ! - Copyright ORBIFLY December 2007 - Disclaimer

ORBIFLY MET'MAP TEAM :

Programming & Development : Alexandra Zaïnal
Concept & Development : Baudouin d'Aumeries
Co-Development & Prog : Marc-Olivier Méhu
Technical & hardware support : Manuel Goepfert

Contact : metmap@orbifly.com




SOURCES & CREDITS :

   NOAA       Earth
Advisory